Private Wetterstation Sandau
Wetterdaten: Montag, 08.10.2012
Datum Zeit Temp. A. Feuchte A. Luftdruck Regen Wind Richtung Richtung Taupunkt Windchill
08.10.2012 00:01 7,9 C 87 % 1019,1 hPa 0,0 l/m 19,1 km/h (3 Bft) W-NW 292 5,9 C 4,8 C
08.10.2012 00:06 7,9 C 87 % 1019,2 hPa 0,0 l/m 9,4 km/h (2 Bft) W-NW 292 5,9 C 6,2 C
08.10.2012 00:11 7,9 C 87 % 1019,2 hPa 0,0 l/m 6,1 km/h (2 Bft) NW 315 5,9 C 7,0 C
08.10.2012 00:16 7,8 C 87 % 1019,3 hPa 0,0 l/m 18,0 km/h (3 Bft) W-SW 247 5,8 C 4,8 C
08.10.2012 00:21 7,8 C 87 % 1019,3 hPa 0,0 l/m 8,3 km/h (2 Bft) W 270 5,8 C 6,4 C
08.10.2012 00:26 7,8 C 87 % 1019,3 hPa 0,0 l/m 17,6 km/h (3 Bft) W 270 5,8 C 4,9 C
08.10.2012 00:31 7,8 C 88 % 1019,4 hPa 0,0 l/m 4,7 km/h (1 Bft) W-NW 292 5,9 C 7,4 C
08.10.2012 00:36 7,8 C 88 % 1019,4 hPa 0,0 l/m 13,7 km/h (3 Bft) W 270 5,9 C 5,4 C
08.10.2012 00:41 7,8 C 88 % 1019,4 hPa 0,0 l/m 14,4 km/h (3 Bft) W-SW 247 5,9 C 5,3 C
08.10.2012 00:46 7,8 C 88 % 1019,5 hPa 0,0 l/m 7,2 km/h (2 Bft) W 270 5,9 C 6,6 C
08.10.2012 00:51 7,8 C 88 % 1019,4 hPa 0,0 l/m 13,7 km/h (3 Bft) W 270 5,9 C 5,4 C
08.10.2012 00:56 7,8 C 88 % 1019,6 hPa 0,0 l/m 20,2 km/h (4 Bft) W 270 5,9 C 4,6 C
08.10.2012 01:01 7,7 C 88 % 1019,6 hPa 0,0 l/m 16,6 km/h (3 Bft) W-NW 292 5,8 C 4,9 C
08.10.2012 01:06 7,8 C 88 % 1019,6 hPa 0,0 l/m 11,5 km/h (2 Bft) NW 315 5,9 C 5,7 C
08.10.2012 01:11 7,8 C 88 % 1019,6 hPa 0,0 l/m 3,2 km/h (1 Bft) W-SW 247 5,9 C 7,8 C
08.10.2012 01:16 7,9 C 88 % 1019,7 hPa 0,0 l/m 12,6 km/h (3 Bft) W-SW 247 6,0 C 5,7 C
08.10.2012 01:21 8,0 C 88 % 1019,7 hPa 0,0 l/m 5,0 km/h (1 Bft) W-SW 247 6,1 C 7,5 C
08.10.2012 01:26 8,1 C 89 % 1019,7 hPa 0,0 l/m 9,0 km/h (2 Bft) W-SW 247 6,4 C 6,6 C
08.10.2012 01:31 8,2 C 88 % 1019,8 hPa 0,0 l/m 5,8 km/h (2 Bft) W 270 6,3 C 7,5 C
08.10.2012 01:36 8,3 C 88 % 1019,8 hPa 0,0 l/m 14,0 km/h (3 Bft) W-SW 247 6,4 C 6,0 C
08.10.2012 01:41 8,3 C 88 % 1019,8 hPa 0,0 l/m 24,5 km/h (4 Bft) W 270 6,4 C 4,8 C
08.10.2012 01:46 8,4 C 87 % 1019,9 hPa 0,0 l/m 12,2 km/h (2 Bft) W-NW 292 6,4 C 6,3 C
08.10.2012 01:51 8,4 C 87 % 1019,9 hPa 0,0 l/m 13,3 km/h (3 Bft) W-SW 247 6,4 C 6,2 C
08.10.2012 01:56 8,4 C 87 % 1019,9 hPa 0,0 l/m 5,4 km/h (1 Bft) W-SW 247 6,4 C 7,8 C
08.10.2012 02:01 8,4 C 87 % 1019,9 hPa 0,0 l/m 11,9 km/h (2 Bft) W-SW 247 6,4 C 6,4 C
08.10.2012 02:06 8,4 C 87 % 1019,9 hPa 0,0 l/m 9,4 km/h (2 Bft) W 270 6,4 C 6,8 C
08.10.2012 02:11 8,4 C 87 % 1019,7 hPa 0,0 l/m 9,7 km/h (2 Bft) W-SW 247 6,4 C 6,8 C
08.10.2012 02:16 8,3 C 87 % 1019,7 hPa 0,0 l/m 12,6 km/h (3 Bft) W 270 6,3 C 6,2 C
08.10.2012 02:21 8,3 C 87 % 1019,9 hPa 0,0 l/m 4,3 km/h (1 Bft) W-SW 247 6,3 C 8,3 C
08.10.2012 02:26 8,3 C 87 % 1019,9 hPa 0,0 l/m 6,1 km/h (2 Bft) W 270 6,3 C 7,5 C
08.10.2012 02:31 8,2 C 87 % 1020,1 hPa 0,0 l/m 6,1 km/h (2 Bft) NW 315 6,2 C 7,4 C
08.10.2012 02:36 8,2 C 87 % 1020,0 hPa 0,0 l/m 11,5 km/h (2 Bft) S-SW 202 6,2 C 6,2 C
08.10.2012 02:41 8,2 C 87 % 1020,0 hPa 0,0 l/m 19,1 km/h (3 Bft) W 270 6,2 C 5,2 C
08.10.2012 02:46 8,2 C 87 % 1020,0 hPa 0,0 l/m 9,7 km/h (2 Bft) W-SW 247 6,2 C 6,5 C
08.10.2012 02:51 8,2 C 87 % 1019,9 hPa 0,0 l/m 6,1 km/h (2 Bft) W-NW 292 6,2 C 7,4 C
08.10.2012 02:56 8,2 C 87 % 1020,0 hPa 0,0 l/m 15,8 km/h (3 Bft) W 270 6,2 C 5,6 C
08.10.2012 03:01 8,2 C 87 % 1020,1 hPa 0,0 l/m 18,4 km/h (3 Bft) W-SW 247 6,2 C 5,3 C
08.10.2012 03:06 8,2 C 87 % 1020,0 hPa 0,0 l/m 3,2 km/h (1 Bft) W-SW 247 6,2 C 8,2 C
08.10.2012 03:11 8,2 C 87 % 1019,9 hPa 0,0 l/m 9,4 km/h (2 Bft) SW 225 6,2 C 6,6 C
08.10.2012 03:16 8,3 C 88 % 1019,9 hPa 0,0 l/m 15,8 km/h (3 Bft) W 270 6,4 C 5,7 C
08.10.2012 03:21 8,3 C 87 % 1019,9 hPa 0,0 l/m 16,9 km/h (3 Bft) NW 315 6,3 C 5,6 C
08.10.2012 03:26 8,3 C 87 % 1019,8 hPa 0,0 l/m 2,5 km/h (1 Bft) NW 315 6,3 C 8,3 C
08.10.2012 03:31 8,2 C 87 % 1019,8 hPa 0,0 l/m 11,5 km/h (2 Bft) W 270 6,2 C 6,2 C
08.10.2012 03:36 8,3 C 87 % 1019,8 hPa 0,0 l/m 19,4 km/h (3 Bft) W-SW 247 6,3 C 5,3 C
08.10.2012 03:41 8,3 C 87 % 1019,8 hPa 0,0 l/m 11,9 km/h (2 Bft) W 270 6,3 C 6,3 C
08.10.2012 03:46 8,3 C 87 % 1019,9 hPa 0,0 l/m 8,3 km/h (2 Bft) W 270 6,3 C 6,9 C
08.10.2012 03:51 8,3 C 87 % 1019,9 hPa 0,0 l/m 11,9 km/h (2 Bft) W 270 6,3 C 6,3 C
08.10.2012 03:56 8,3 C 87 % 1020,0 hPa 0,0 l/m 19,4 km/h (3 Bft) W 270 6,3 C 5,3 C
08.10.2012 04:01 8,3 C 87 % 1019,9 hPa 0,0 l/m 11,9 km/h (2 Bft) W-SW 247 6,3 C 6,3 C
08.10.2012 04:06 8,3 C 87 % 1020,1 hPa 0,0 l/m 3,6 km/h (1 Bft) W 270 6,3 C 8,3 C
08.10.2012 04:11 8,3 C 87 % 1020,1 hPa 0,0 l/m 4,0 km/h (1 Bft) W 270 6,3 C 8,3 C
08.10.2012 04:16 8,4 C 87 % 1020,0 hPa 0,0 l/m 13,7 km/h (3 Bft) W 270 6,4 C 6,1 C
08.10.2012 04:21 8,3 C 87 % 1019,9 hPa 0,0 l/m 11,2 km/h (2 Bft) W-SW 247 6,3 C 6,4 C
08.10.2012 04:26 8,3 C 87 % 1019,8 hPa 0,0 l/m 6,8 km/h (2 Bft) W-SW 247 6,3 C 7,3 C
08.10.2012 04:31 8,3 C 87 % 1019,8 hPa 0,0 l/m 5,8 km/h (2 Bft) W-SW 247 6,3 C 7,6 C
08.10.2012 04:36 8,3 C 87 % 1019,7 hPa 0,0 l/m 8,6 km/h (2 Bft) NW 315 6,3 C 6,9 C
08.10.2012 04:41 8,2 C 87 % 1019,7 hPa 0,0 l/m 2,9 km/h (1 Bft) W 270 6,2 C 8,2 C
08.10.2012 04:46 8,2 C 87 % 1019,6 hPa 0,0 l/m 3,2 km/h (1 Bft) W-SW 247 6,2 C 8,2 C
08.10.2012 04:51 8,1 C 87 % 1019,7 hPa 0,0 l/m 4,0 km/h (1 Bft) NW 315 6,1 C 8,1 C
08.10.2012 04:56 8,1 C 87 % 1019,7 hPa 0,0 l/m 5,8 km/h (2 Bft) W-SW 247 6,1 C 7,3 C
08.10.2012 05:01 8,1 C 87 % 1019,7 hPa 0,0 l/m 8,6 km/h (2 Bft) W-NW 292 6,1 C 6,6 C
08.10.2012 05:06 7,9 C 87 % 1019,8 hPa 0,0 l/m 7,6 km/h (2 Bft) W-SW 247 5,9 C 6,6 C
08.10.2012 05:11 7,9 C 87 % 1019,7 hPa 0,0 l/m 10,1 km/h (2 Bft) NW 315 5,9 C 6,1 C
08.10.2012 05:16 7,9 C 88 % 1019,7 hPa 0,0 l/m 4,7 km/h (1 Bft) W 270 6,0 C 7,5 C
08.10.2012 05:21 7,9 C 88 % 1019,7 hPa 0,0 l/m 7,2 km/h (2 Bft) W-SW 247 6,0 C 6,7 C
08.10.2012 05:26 7,8 C 88 % 1019,8 hPa 0,0 l/m 10,8 km/h (2 Bft) NW 315 5,9 C 5,9 C
08.10.2012 05:31 7,8 C 88 % 1019,9 hPa 0,0 l/m 3,2 km/h (1 Bft) W 270 5,9 C 7,8 C
08.10.2012 05:36 7,6 C 88 % 1019,9 hPa 0,0 l/m 6,1 km/h (2 Bft) W 270 5,7 C 6,7 C
08.10.2012 05:41 7,6 C 88 % 1019,8 hPa 0,0 l/m 9,4 km/h (2 Bft) W-NW 292 5,7 C 5,9 C
08.10.2012 05:46 7,6 C 88 % 1019,6 hPa 0,0 l/m 8,6 km/h (2 Bft) W-SW 247 5,7 C 6,1 C
08.10.2012 05:51 7,5 C 88 % 1019,5 hPa 0,0 l/m 4,7 km/h (1 Bft) W-SW 247 5,6 C 7,0 C
08.10.2012 05:56 7,5 C 88 % 1019,6 hPa 0,0 l/m 12,2 km/h (2 Bft) W 270 5,6 C 5,3 C
08.10.2012 06:01 7,5 C 89 % 1019,6 hPa 0,0 l/m 0,0 km/h (0 Bft) W-SW 247 5,8 C 7,5 C
08.10.2012 06:06 7,4 C 89 % 1019,6 hPa 0,0 l/m 7,9 km/h (2 Bft) W 270 5,7 C 6,0 C
08.10.2012 06:11 7,5 C 89 % 1019,5 hPa 0,0 l/m 14,4 km/h (3 Bft) W-SW 247 5,8 C 4,9 C
08.10.2012 06:16 7,5 C 89 % 1019,6 hPa 0,0 l/m 3,2 km/h (1 Bft) NW 315 5,8 C 7,5 C
08.10.2012 06:21 7,6 C 89 % 1019,7 hPa 0,0 l/m 4,7 km/h (1 Bft) W-SW 247 5,9 C 7,1 C
08.10.2012 06:26 7,6 C 89 % 1019,6 hPa 0,0 l/m 4,7 km/h (1 Bft) W-SW 247 5,9 C 7,1 C
08.10.2012 06:31 7,6 C 89 % 1019,6 hPa 0,0 l/m 2,9 km/h (1 Bft) W-SW 247 5,9 C 7,6 C
08.10.2012 06:36 7,6 C 89 % 1019,6 hPa 0,0 l/m 2,2 km/h (1 Bft) W-SW 247 5,9 C 7,6 C
08.10.2012 06:41 7,6 C 89 % 1019,4 hPa 0,0 l/m 11,5 km/h (2 Bft) W 270 5,9 C 5,5 C
08.10.2012 06:46 7,6 C 89 % 1019,4 hPa 0,0 l/m 9,7 km/h (2 Bft) W-SW 247 5,9 C 5,8 C
08.10.2012 06:51 7,5 C 89 % 1019,5 hPa 0,0 l/m 14,4 km/h (3 Bft) W-SW 247 5,8 C 4,9 C
08.10.2012 06:56 7,4 C 89 % 1019,3 hPa 0,0 l/m 11,5 km/h (2 Bft) W 270 5,7 C 5,2 C
08.10.2012 07:01 7,4 C 89 % 1019,3 hPa 0,0 l/m 6,5 km/h (2 Bft) W-NW 292 5,7 C 6,3 C
08.10.2012 07:06 7,4 C 89 % 1019,4 hPa 0,0 l/m 10,1 km/h (2 Bft) SW 225 5,7 C 5,5 C
08.10.2012 07:11 7,4 C 89 % 1019,4 hPa 0,0 l/m 6,1 km/h (2 Bft) W-SW 247 5,7 C 6,5 C
08.10.2012 07:16 7,4 C 89 % 1019,4 hPa 0,0 l/m 18,0 km/h (3 Bft) W-NW 292 5,7 C 4,3 C
08.10.2012 07:21 7,5 C 90 % 1019,4 hPa 0,0 l/m 5,8 km/h (2 Bft) W-SW 247 6,0 C 6,7 C
08.10.2012 07:26 7,5 C 90 % 1019,6 hPa 0,0 l/m 5,8 km/h (2 Bft) W 270 6,0 C 6,7 C
08.10.2012 07:31 7,6 C 90 % 1019,6 hPa 0,0 l/m 1,8 km/h (1 Bft) W 270 6,1 C 7,6 C
08.10.2012 07:36 7,6 C 89 % 1019,6 hPa 0,0 l/m 6,5 km/h (2 Bft) W-SW 247 5,9 C 6,6 C
08.10.2012 07:41 7,6 C 89 % 1019,5 hPa 0,0 l/m 11,9 km/h (2 Bft) W-SW 247 5,9 C 5,4 C
08.10.2012 07:46 7,6 C 89 % 1019,6 hPa 0,0 l/m 11,2 km/h (2 Bft) W-SW 247 5,9 C 5,5 C
08.10.2012 07:51 7,6 C 89 % 1019,7 hPa 0,0 l/m 21,6 km/h (4 Bft) W 270 5,9 C 4,2 C
08.10.2012 07:56 7,6 C 89 % 1019,5 hPa 0,0 l/m 5,0 km/h (1 Bft) W-SW 247 5,9 C 7,0 C
08.10.2012 08:01 7,8 C 89 % 1019,6 hPa 0,0 l/m 4,0 km/h (1 Bft) W-SW 247 6,1 C 7,8 C
08.10.2012 08:06 7,8 C 89 % 1019,9 hPa 0,0 l/m 16,9 km/h (3 Bft) W 270 6,1 C 5,0 C
08.10.2012 08:11 7,8 C 89 % 1019,8 hPa 0,0 l/m 4,7 km/h (1 Bft) W 270 6,1 C 7,4 C
08.10.2012 08:16 7,9 C 89 % 1019,8 hPa 0,0 l/m 7,6 km/h (2 Bft) W-SW 247 6,2 C 6,6 C
08.10.2012 08:21 7,9 C 89 % 1019,8 hPa 0,0 l/m 4,7 km/h (1 Bft) SW 225 6,2 C 7,5 C
08.10.2012 08:26 7,9 C 89 % 1019,9 hPa 0,0 l/m 10,4 km/h (2 Bft) NW 315 6,2 C 6,0 C
08.10.2012 08:31 7,9 C 88 % 1019,9 hPa 0,0 l/m 9,4 km/h (2 Bft) W-NW 292 6,0 C 6,2 C
08.10.2012 08:36 8,1 C 88 % 1019,8 hPa 0,0 l/m 6,5 km/h (2 Bft) W 270 6,2 C 7,1 C
08.10.2012 08:41 8,1 C 88 % 1020,0 hPa 0,0 l/m 10,1 km/h (2 Bft) W 270 6,2 C 6,3 C
08.10.2012 08:46 8,2 C 88 % 1020,0 hPa 0,0 l/m 4,3 km/h (1 Bft) W 270 6,3 C 8,2 C
08.10.2012 08:51 8,2 C 88 % 1020,0 hPa 0,0 l/m 2,9 km/h (1 Bft) SW 225 6,3 C 8,2 C
08.10.2012 08:56 8,3 C 88 % 1020,0 hPa 0,0 l/m 14,4 km/h (3 Bft) W-SW 247 6,4 C 5,9 C
08.10.2012 09:01 8,3 C 87 % 1020,0 hPa 0,0 l/m 2,5 km/h (1 Bft) W 270 6,3 C 8,3 C
08.10.2012 09:06 8,4 C 87 % 1020,0 hPa 0,0 l/m 3,6 km/h (1 Bft) W 270 6,4 C 8,4 C
08.10.2012 09:11 8,5 C 87 % 1020,1 hPa 0,0 l/m 2,2 km/h (1 Bft) W-NW 292 6,5 C 8,5 C
08.10.2012 09:16 8,6 C 86 % 1020,1 hPa 0,0 l/m 5,8 km/h (2 Bft) W-SW 247 6,4 C 7,9 C
08.10.2012 09:21 8,6 C 86 % 1020,1 hPa 0,0 l/m 5,4 km/h (1 Bft) W-SW 247 6,4 C 8,0 C
08.10.2012 09:26 8,8 C 87 % 1020,2 hPa 0,0 l/m 1,4 km/h (1 Bft) W 270 6,8 C 8,8 C
08.10.2012 09:31 8,9 C 86 % 1020,0 hPa 0,0 l/m 11,2 km/h (2 Bft) W 270 6,7 C 7,1 C
08.10.2012 09:36 8,9 C 86 % 1020,0 hPa 0,0 l/m 5,8 km/h (2 Bft) NW 315 6,7 C 8,3 C
08.10.2012 09:41 9,1 C 85 % 1020,1 hPa 0,0 l/m 10,8 km/h (2 Bft) W-NW 292 6,7 C 7,4 C
08.10.2012 09:46 9,3 C 85 % 1020,1 hPa 0,0 l/m 5,0 km/h (1 Bft) W-NW 292 6,9 C 9,0 C
08.10.2012 09:51 9,3 C 85 % 1020,0 hPa 0,0 l/m 4,7 km/h (1 Bft) W 270 6,9 C 9,1 C
08.10.2012 09:56 9,5 C 84 % 1020,0 hPa 0,0 l/m 7,2 km/h (2 Bft) W 270 6,9 C 8,6 C
08.10.2012 10:01 9,6 C 84 % 1020,2 hPa 0,0 l/m 8,3 km/h (2 Bft) W 270 7,0 C 8,5 C
08.10.2012 10:06 9,6 C 84 % 1020,1 hPa 0,0 l/m 9,4 km/h (2 Bft) W 270 7,0 C 8,3 C
08.10.2012 10:11 9,7 C 84 % 1020,3 hPa 0,0 l/m 8,6 km/h (2 Bft) W-SW 247 7,1 C 8,5 C
08.10.2012 10:16 9,8 C 83 % 1020,1 hPa 0,0 l/m 6,5 km/h (2 Bft) W-SW 247 7,1 C 9,1 C
08.10.2012 10:21 9,9 C 83 % 1020,2 hPa 0,0 l/m 4,0 km/h (1 Bft) W-SW 247 7,2 C 9,9 C
08.10.2012 10:26 9,9 C 83 % 1020,2 hPa 0,0 l/m 5,0 km/h (1 Bft) W-NW 292 7,2 C 9,6 C
08.10.2012 10:31 9,9 C 82 % 1020,3 hPa 0,0 l/m 4,0 km/h (1 Bft) W 270 7,0 C 9,9 C
08.10.2012 10:36 9,9 C 82 % 1020,2 hPa 0,0 l/m 7,6 km/h (2 Bft) W 270 7,0 C 9,0 C
08.10.2012 10:41 10,1 C 83 % 1020,1 hPa 0,0 l/m 6,1 km/h (2 Bft) W 270 7,3 C 10,1 C
08.10.2012 10:46 10,2 C 82 % 1020,1 hPa 0,0 l/m 3,2 km/h (1 Bft) W 270 7,3 C 10,2 C
08.10.2012 10:51 10,3 C 82 % 1019,9 hPa 0,0 l/m 14,8 km/h (3 Bft) NW 315 7,4 C 10,3 C
08.10.2012 10:56 10,4 C 82 % 1019,9 hPa 0,0 l/m 13,7 km/h (3 Bft) W-SW 247 7,5 C 10,4 C
08.10.2012 11:01 10,6 C 82 % 1020,2 hPa 0,0 l/m 6,5 km/h (2 Bft) W-NW 292 7,7 C 10,6 C
08.10.2012 11:06 10,8 C 82 % 1020,1 hPa 0,0 l/m 7,9 km/h (2 Bft) NW 315 7,9 C 10,8 C
08.10.2012 11:11 10,8 C 81 % 1020,2 hPa 0,0 l/m 10,1 km/h (2 Bft) W 270 7,7 C 10,8 C
08.10.2012 11:16 11,0 C 81 % 1020,2 hPa 0,0 l/m 7,6 km/h (2 Bft) NW 315 7,9 C 11,0 C
08.10.2012 11:21 11,2 C 80 % 1020,3 hPa 0,0 l/m 14,0 km/h (3 Bft) NW 315 7,9 C 11,2 C
08.10.2012 11:26 11,3 C 80 % 1020,3 hPa 0,0 l/m 7,2 km/h (2 Bft) W-NW 292 8,0 C 11,3 C
08.10.2012 11:31 11,4 C 80 % 1020,1 hPa 0,0 l/m 7,6 km/h (2 Bft) W 270 8,1 C 11,4 C
08.10.2012 11:36 11,5 C 79 % 1020,0 hPa 0,0 l/m 6,5 km/h (2 Bft) W-NW 292 8,0 C 11,5 C
08.10.2012 11:41 11,6 C 78 % 1020,0 hPa 0,0 l/m 11,2 km/h (2 Bft) W-NW 292 7,9 C 11,6 C
08.10.2012 11:46 11,8 C 78 % 1019,9 hPa 0,0 l/m 8,6 km/h (2 Bft) NW 315 8,1 C 11,8 C
08.10.2012 11:51 11,9 C 78 % 1019,9 hPa 0,0 l/m 14,8 km/h (3 Bft) W 270 8,2 C 11,9 C
08.10.2012 11:56 12,2 C 77 % 1019,8 hPa 0,0 l/m 8,6 km/h (2 Bft) W 270 8,3 C 12,2 C
08.10.2012 12:01 12,3 C 76 % 1019,9 hPa 0,0 l/m 7,2 km/h (2 Bft) W-NW 292 8,2 C 12,3 C
08.10.2012 12:06 12,4 C 76 % 1019,9 hPa 0,0 l/m 13,7 km/h (3 Bft) W-SW 247 8,3 C 12,4 C
08.10.2012 12:11 12,5 C 75 % 1019,9 hPa 0,0 l/m 7,9 km/h (2 Bft) W 270 8,2 C 12,5 C
08.10.2012 12:16 12,7 C 74 % 1019,9 hPa 0,0 l/m 6,1 km/h (2 Bft) W-NW 292 8,2 C 12,7 C
08.10.2012 12:21 12,8 C 74 % 1020,0 hPa 0,0 l/m 4,0 km/h (1 Bft) W-SW 247 8,3 C 12,8 C
08.10.2012 12:26 12,9 C 74 % 1019,8 hPa 0,0 l/m 4,0 km/h (1 Bft) W-SW 247 8,4 C 12,9 C
08.10.2012 12:31 13,1 C 74 % 1019,9 hPa 0,0 l/m 20,2 km/h (4 Bft) W 270 8,6 C 13,1 C
08.10.2012 12:36 13,3 C 73 % 1019,7 hPa 0,0 l/m 7,6 km/h (2 Bft) W-NW 292 8,6 C 13,3 C
08.10.2012 12:41 13,3 C 72 % 1019,7 hPa 0,0 l/m 8,3 km/h (2 Bft) W-NW 292 8,4 C 13,3 C
08.10.2012 12:46 13,4 C 72 % 1019,6 hPa 0,0 l/m 4,0 km/h (1 Bft) W 270 8,5 C 13,4 C
08.10.2012 12:51 13,4 C 72 % 1019,6 hPa 0,0 l/m 8,3 km/h (2 Bft) W-SW 247 8,5 C 13,4 C
08.10.2012 12:56 13,6 C 71 % 1019,6 hPa 0,0 l/m 16,9 km/h (3 Bft) NW 315 8,4 C 13,6 C
08.10.2012 13:01 13,6 C 70 % 1019,6 hPa 0,0 l/m 7,6 km/h (2 Bft) W-NW 292 8,2 C 13,6 C
08.10.2012 13:06 13,5 C 70 % 1019,5 hPa 0,0 l/m 6,5 km/h (2 Bft) SW 225 8,1 C 13,5 C
08.10.2012 13:11 13,5 C 71 % 1019,4 hPa 0,0 l/m 13,3 km/h (3 Bft) W 270 8,3 C 13,5 C
08.10.2012 13:16 13,4 C 71 % 1019,5 hPa 0,0 l/m 15,1 km/h (3 Bft) W-NW 292 8,3 C 13,4 C
08.10.2012 13:21 13,4 C 71 % 1019,5 hPa 0,0 l/m 7,6 km/h (2 Bft) SW 225 8,3 C 13,4 C
08.10.2012 13:26 13,3 C 70 % 1019,5 hPa 0,0 l/m 6,1 km/h (2 Bft) W-NW 292 7,9 C 13,3 C
08.10.2012 13:31 13,4 C 70 % 1019,3 hPa 0,0 l/m 12,2 km/h (2 Bft) W 270 8,0 C 13,4 C
08.10.2012 13:36 13,4 C 70 % 1019,3 hPa 0,0 l/m 5,0 km/h (1 Bft) W-NW 292 8,0 C 13,4 C
08.10.2012 13:41 13,3 C 70 % 1019,2 hPa 0,0 l/m 4,7 km/h (1 Bft) W-NW 292 7,9 C 13,3 C
08.10.2012 13:46 13,3 C 70 % 1019,3 hPa 0,0 l/m 11,9 km/h (2 Bft) W-NW 292 7,9 C 13,3 C
08.10.2012 13:51 13,3 C 70 % 1019,3 hPa 0,0 l/m 9,0 km/h (2 Bft) W 270 7,9 C 13,3 C
08.10.2012 13:56 13,2 C 70 % 1019,1 hPa 0,0 l/m 12,2 km/h (2 Bft) W-NW 292 7,9 C 13,2 C
08.10.2012 14:01 13,2 C 69 % 1018,9 hPa 0,0 l/m 6,5 km/h (2 Bft) W-NW 292 7,6 C 13,2 C
08.10.2012 14:06 13,1 C 69 % 1019,0 hPa 0,0 l/m 8,3 km/h (2 Bft) W-SW 247 7,5 C 13,1 C
08.10.2012 14:11 13,3 C 70 % 1019,0 hPa 0,0 l/m 7,9 km/h (2 Bft) W-SW 247 7,9 C 13,3 C
08.10.2012 14:16 13,3 C 70 % 1019,0 hPa 0,0 l/m 11,9 km/h (2 Bft) SW 225 7,9 C 13,3 C
08.10.2012 14:21 13,4 C 70 % 1018,9 hPa 0,0 l/m 12,6 km/h (3 Bft) W 270 8,0 C 13,4 C
08.10.2012 14:26 13,4 C 70 % 1018,9 hPa 0,0 l/m 6,1 km/h (2 Bft) SW 225 8,0 C 13,4 C
08.10.2012 14:31 13,4 C 70 % 1018,9 hPa 0,0 l/m 19,1 km/h (3 Bft) W-NW 292 8,0 C 13,4 C
08.10.2012 14:36 13,4 C 69 % 1018,9 hPa 0,0 l/m 4,7 km/h (1 Bft) W 270 7,8 C 13,4 C
08.10.2012 14:41 13,5 C 68 % 1018,7 hPa 0,0 l/m 5,8 km/h (2 Bft) W 270 7,7 C 13,5 C
08.10.2012 14:46 13,6 C 69 % 1018,7 hPa 0,0 l/m 8,6 km/h (2 Bft) W-NW 292 8,0 C 13,6 C
08.10.2012 14:51 13,6 C 69 % 1018,6 hPa 0,0 l/m 6,5 km/h (2 Bft) W-NW 292 8,0 C 13,6 C
08.10.2012 14:56 13,6 C 69 % 1018,5 hPa 0,0 l/m 3,2 km/h (1 Bft) W 270 8,0 C 13,6 C
08.10.2012 15:01 13,5 C 70 % 1018,6 hPa 0,0 l/m 2,5 km/h (1 Bft) W 270 8,1 C 13,5 C
08.10.2012 15:06 13,3 C 69 % 1018,4 hPa 0,0 l/m 4,3 km/h (1 Bft) W 270 7,7 C 13,3 C
08.10.2012 15:11 13,3 C 70 % 1018,4 hPa 0,0 l/m 7,2 km/h (2 Bft) W-SW 247 7,9 C 13,3 C
08.10.2012 15:16 13,2 C 70 % 1018,4 hPa 0,0 l/m 7,2 km/h (2 Bft) W-SW 247 7,9 C 13,2 C
08.10.2012 15:21 13,2 C 70 % 1018,5 hPa 0,0 l/m 8,6 km/h (2 Bft) W-SW 247 7,9 C 13,2 C
08.10.2012 15:26 13,1 C 69 % 1018,2 hPa 0,0 l/m 5,0 km/h (1 Bft) W-SW 247 7,5 C 13,1 C
08.10.2012 15:31 13,0 C 69 % 1018,4 hPa 0,0 l/m 5,8 km/h (2 Bft) W-SW 247 7,4 C 13,0 C
08.10.2012 15:36 13,0 C 69 % 1018,2 hPa 0,0 l/m 3,6 km/h (1 Bft) W-NW 292 7,4 C 13,0 C
08.10.2012 15:41 13,1 C 70 % 1018,2 hPa 0,0 l/m 13,0 km/h (3 Bft) W-NW 292 7,8 C 13,1 C
08.10.2012 15:46 13,3 C 68 % 1017,9 hPa 0,0 l/m 8,3 km/h (2 Bft) W-NW 292 7,5 C 13,3 C
08.10.2012 15:51 13,4 C 68 % 1017,9 hPa 0,0 l/m 5,0 km/h (1 Bft) W 270 7,6 C 13,4 C
08.10.2012 15:56 13,3 C 68 % 1017,8 hPa 0,0 l/m 4,0 km/h (1 Bft) W-SW 247 7,5 C 13,3 C
08.10.2012 16:01 13,1 C 68 % 1017,6 hPa 0,0 l/m 10,4 km/h (2 Bft) W 270 7,3 C 13,1 C
08.10.2012 16:06 12,9 C 68 % 1017,5 hPa 0,0 l/m 11,9 km/h (2 Bft) W-SW 247 7,1 C 12,9 C
08.10.2012 16:11 12,6 C 69 % 1017,5 hPa 0,0 l/m 3,2 km/h (1 Bft) W-SW 247 7,1 C 12,6 C
08.10.2012 16:16 12,5 C 70 % 1017,4 hPa 0,0 l/m 7,2 km/h (2 Bft) W-SW 247 7,2 C 12,5 C
08.10.2012 16:21 12,6 C 70 % 1017,4 hPa 0,0 l/m 5,8 km/h (2 Bft) W 270 7,3 C 12,6 C
08.10.2012 16:26 12,7 C 70 % 1017,4 hPa 0,0 l/m 6,5 km/h (2 Bft) W-SW 247 7,4 C 12,7 C
08.10.2012 16:31 12,6 C 70 % 1017,4 hPa 0,0 l/m 5,8 km/h (2 Bft) W 270 7,3 C 12,6 C
08.10.2012 16:36 12,7 C 70 % 1017,3 hPa 0,0 l/m 8,3 km/h (2 Bft) W-SW 247 7,4 C 12,7 C
08.10.2012 16:41 12,6 C 70 % 1017,2 hPa 0,0 l/m 5,8 km/h (2 Bft) W-SW 247 7,3 C 12,6 C
08.10.2012 16:46 12,7 C 71 % 1017,1 hPa 0,0 l/m 13,7 km/h (3 Bft) W-SW 247 7,6 C 12,7 C
08.10.2012 16:51 12,7 C 69 % 1017,1 hPa 0,0 l/m 7,6 km/h (2 Bft) W-SW 247 7,2 C 12,7 C
08.10.2012 16:56 12,8 C 69 % 1017,0 hPa 0,0 l/m 10,4 km/h (2 Bft) W 270 7,3 C 12,8 C
08.10.2012 17:01 12,8 C 69 % 1017,0 hPa 0,0 l/m 9,4 km/h (2 Bft) W 270 7,3 C 12,8 C
08.10.2012 17:06 12,8 C 69 % 1017,0 hPa 0,0 l/m 11,5 km/h (2 Bft) W-SW 247 7,3 C 12,8 C
08.10.2012 17:11 12,8 C 68 % 1016,8 hPa 0,0 l/m 9,4 km/h (2 Bft) W 270 7,0 C 12,8 C
08.10.2012 17:16 12,7 C 69 % 1016,8 hPa 0,0 l/m 7,9 km/h (2 Bft) W-SW 247 7,2 C 12,7 C
08.10.2012 17:21 12,6 C 69 % 1016,8 hPa 0,0 l/m 2,5 km/h (1 Bft) W-SW 247 7,1 C 12,6 C
08.10.2012 17:26 12,5 C 69 % 1016,7 hPa 0,0 l/m 4,7 km/h (1 Bft) W-SW 247 7,0 C 12,5 C
08.10.2012 17:31 12,4 C 70 % 1016,6 hPa 0,0 l/m 8,3 km/h (2 Bft) SW 225 7,1 C 12,4 C
08.10.2012 17:36 12,3 C 70 % 1016,5 hPa 0,0 l/m 4,0 km/h (1 Bft) W 270 7,0 C 12,3 C
08.10.2012 17:41 12,1 C 71 % 1016,5 hPa 0,0 l/m 7,9 km/h (2 Bft) W-SW 247 7,0 C 12,1 C
08.10.2012 17:46 12,1 C 71 % 1016,4 hPa 0,0 l/m 4,7 km/h (1 Bft) W 270 7,0 C 12,1 C
08.10.2012 17:51 11,9 C 71 % 1016,4 hPa 0,0 l/m 3,6 km/h (1 Bft) SW 225 6,8 C 11,9 C
08.10.2012 17:56 11,9 C 71 % 1016,2 hPa 0,0 l/m 5,4 km/h (1 Bft) SW 225 6,8 C 11,9 C
08.10.2012 18:01 11,8 C 72 % 1016,4 hPa 0,0 l/m 4,3 km/h (1 Bft) W-SW 247 6,9 C 11,8 C
08.10.2012 18:06 11,6 C 73 % 1016,4 hPa 0,0 l/m 3,2 km/h (1 Bft) SW 225 6,9 C 11,6 C
08.10.2012 18:11 11,6 C 73 % 1016,1 hPa 0,0 l/m 1,1 km/h (1 Bft) SW 225 6,9 C 11,6 C
08.10.2012 18:16 11,5 C 73 % 1016,1 hPa 0,0 l/m 3,6 km/h (1 Bft) SW 225 6,8 C 11,5 C
08.10.2012 18:21 11,4 C 74 % 1016,0 hPa 0,0 l/m 5,0 km/h (1 Bft) S-SW 202 6,9 C 11,4 C
08.10.2012 18:26 11,3 C 73 % 1015,9 hPa 0,0 l/m 8,3 km/h (2 Bft) W-SW 247 6,6 C 11,3 C
08.10.2012 18:31 11,2 C 73 % 1015,8 hPa 0,0 l/m 7,2 km/h (2 Bft) W-SW 247 6,5 C 11,2 C
08.10.2012 18:36 11,1 C 73 % 1015,8 hPa 0,0 l/m 4,3 km/h (1 Bft) W-SW 247 6,4 C 11,1 C
08.10.2012 18:41 10,9 C 73 % 1015,9 hPa 0,0 l/m 6,8 km/h (2 Bft) W-SW 247 6,3 C 10,9 C
08.10.2012 18:46 10,8 C 73 % 1015,8 hPa 0,0 l/m 2,2 km/h (1 Bft) W-SW 247 6,2 C 10,8 C
08.10.2012 18:51 10,7 C 74 % 1015,9 hPa 0,0 l/m 2,5 km/h (1 Bft) W-SW 247 6,3 C 10,7 C
08.10.2012 18:56 10,5 C 74 % 1015,8 hPa 0,0 l/m 6,8 km/h (2 Bft) SW 225 6,1 C 10,5 C
08.10.2012 19:01 10,4 C 74 % 1015,7 hPa 0,0 l/m 1,8 km/h (1 Bft) S-SW 202 6,0 C 10,4 C
08.10.2012 19:06 10,3 C 74 % 1015,6 hPa 0,0 l/m 5,4 km/h (1 Bft) SW 225 5,9 C 10,3 C
08.10.2012 19:11 10,2 C 75 % 1015,7 hPa 0,0 l/m 7,2 km/h (2 Bft) W-SW 247 6,0 C 10,2 C
08.10.2012 19:16 10,1 C 75 % 1015,7 hPa 0,0 l/m 3,6 km/h (1 Bft) SW 225 5,9 C 10,1 C
08.10.2012 19:21 9,9 C 76 % 1015,6 hPa 0,0 l/m 6,5 km/h (2 Bft) W-SW 247 5,9 C 9,2 C
08.10.2012 19:26 9,8 C 76 % 1015,7 hPa 0,0 l/m 8,3 km/h (2 Bft) W-SW 247 5,8 C 8,7 C
08.10.2012 19:31 9,7 C 76 % 1015,7 hPa 0,0 l/m 4,0 km/h (1 Bft) SW 225 5,7 C 9,7 C
08.10.2012 19:36 9,6 C 76 % 1015,6 hPa 0,0 l/m 2,9 km/h (1 Bft) SW 225 5,6 C 9,6 C
08.10.2012 19:41 9,5 C 77 % 1015,6 hPa 0,0 l/m 3,6 km/h (1 Bft) SW 225 5,7 C 9,5 C
08.10.2012 19:46 9,3 C 77 % 1015,5 hPa 0,0 l/m 0,0 km/h (0 Bft) SW 225 5,5 C 9,3 C
08.10.2012 19:51 9,3 C 77 % 1015,4 hPa 0,0 l/m 7,2 km/h (2 Bft) W 270 5,5 C 8,4 C
08.10.2012 19:56 9,1 C 77 % 1015,4 hPa 0,0 l/m 5,8 km/h (2 Bft) W-SW 247 5,3 C 8,5 C
08.10.2012 20:01 9,1 C 77 % 1015,3 hPa 0,0 l/m 4,7 km/h (1 Bft) W-SW 247 5,3 C 8,8 C
08.10.2012 20:06 8,9 C 77 % 1015,3 hPa 0,0 l/m 2,5 km/h (1 Bft) W-SW 247 5,1 C 8,9 C
08.10.2012 20:11 8,9 C 77 % 1015,3 hPa 0,0 l/m 5,8 km/h (2 Bft) W-SW 247 5,1 C 8,3 C
08.10.2012 20:16 8,9 C 77 % 1015,4 hPa 0,0 l/m 4,0 km/h (1 Bft) W-SW 247 5,1 C 8,9 C
08.10.2012 20:21 8,8 C 78 % 1015,4 hPa 0,0 l/m 4,7 km/h (1 Bft) W-SW 247 5,2 C 8,5 C
08.10.2012 20:26 8,7 C 78 % 1015,3 hPa 0,0 l/m 2,5 km/h (1 Bft) W-SW 247 5,1 C 8,7 C
08.10.2012 20:31 8,6 C 79 % 1015,2 hPa 0,0 l/m 4,0 km/h (1 Bft) W-SW 247 5,2 C 8,6 C
08.10.2012 20:36 8,5 C 79 % 1015,3 hPa 0,0 l/m 1,1 km/h (1 Bft) W-SW 247 5,1 C 8,5 C
08.10.2012 20:41 8,4 C 79 % 1015,2 hPa 0,0 l/m 1,8 km/h (1 Bft) W-SW 247 5,0 C 8,4 C
08.10.2012 20:46 8,4 C 79 % 1015,1 hPa 0,0 l/m 0,0 km/h (0 Bft) W-SW 247 5,0 C 8,4 C
08.10.2012 20:51 8,3 C 79 % 1014,9 hPa 0,0 l/m 2,2 km/h (1 Bft) SW 225 4,9 C 8,3 C
08.10.2012 20:56 8,1 C 79 % 1015,0 hPa 0,0 l/m 0,0 km/h (0 Bft) S-SW 202 4,7 C 8,1 C
08.10.2012 21:01 8,0 C 80 % 1014,9 hPa 0,0 l/m 2,5 km/h (1 Bft) S-SW 202 4,8 C 8,0 C
08.10.2012 21:06 7,9 C 80 % 1014,7 hPa 0,0 l/m 1,8 km/h (1 Bft) S-SW 202 4,7 C 7,9 C
08.10.2012 21:11 7,8 C 80 % 1014,6 hPa 0,0 l/m 1,4 km/h (1 Bft) S-SW 202 4,6 C 7,8 C
08.10.2012 21:16 7,6 C 80 % 1014,6 hPa 0,0 l/m 0,0 km/h (0 Bft) S-SW 202 4,4 C 7,6 C
08.10.2012 21:21 7,5 C 81 % 1014,5 hPa 0,0 l/m 0,0 km/h (0 Bft) S-SW 202 4,5 C 7,5 C
08.10.2012 21:26 7,4 C 81 % 1014,4 hPa 0,0 l/m 0,0 km/h (0 Bft) S-SW 202 4,4 C 7,4 C
08.10.2012 21:31 7,3 C 81 % 1014,4 hPa 0,0 l/m 0,0 km/h (0 Bft) S-SW 202 4,3 C 7,3 C
08.10.2012 21:36 7,2 C 81 % 1014,5 hPa 0,0 l/m 2,9 km/h (1 Bft) S-SW 202 4,2 C 7,2 C
08.10.2012 21:41 7,0 C 82 % 1014,3 hPa 0,0 l/m 0,0 km/h (0 Bft) S-SW 202 4,1 C 7,0 C
08.10.2012 21:46 6,9 C 82 % 1014,3 hPa 0,0 l/m 1,4 km/h (1 Bft) S-SW 202 4,0 C 6,9 C
08.10.2012 21:51 6,8 C 82 % 1014,0 hPa 0,0 l/m 1,1 km/h (1 Bft) S-SW 202 3,9 C 6,8 C
08.10.2012 21:56 6,6 C 82 % 1014,1 hPa 0,0 l/m 1,1 km/h (1 Bft) S-SW 202 3,8 C 6,6 C
08.10.2012 22:01 6,4 C 82 % 1014,0 hPa 0,0 l/m 0,0 km/h (0 Bft) S-SW 202 3,6 C 6,4 C
08.10.2012 22:06 6,3 C 83 % 1014,0 hPa 0,0 l/m 0,0 km/h (0 Bft) S-SW 202 3,6 C 6,3 C
08.10.2012 22:11 6,2 C 83 % 1014,0 hPa 0,0 l/m 0,0 km/h (0 Bft) S-SW 202 3,5 C 6,2 C
08.10.2012 22:16 6,1 C 84 % 1013,6 hPa 0,0 l/m 1,8 km/h (1 Bft) S-SW 202 3,6 C 6,1 C
08.10.2012 22:21 6,0 C 84 % 1013,5 hPa 0,0 l/m 1,4 km/h (1 Bft) S 180 3,5 C 6,0 C
08.10.2012 22:26 5,9 C 84 % 1013,7 hPa 0,0 l/m 0,0 km/h (0 Bft) S 180 3,4 C 5,9 C
08.10.2012 22:31 5,9 C 84 % 1013,6 hPa 0,0 l/m 0,0 km/h (0 Bft) S 180 3,4 C 5,9 C
08.10.2012 22:36 5,8 C 84 % 1013,5 hPa 0,0 l/m 0,0 km/h (0 Bft) S 180 3,3 C 5,8 C
08.10.2012 22:41 5,6 C 84 % 1013,5 hPa 0,0 l/m 2,5 km/h (1 Bft) S 180 3,1 C 5,6 C
08.10.2012 22:46 5,6 C 85 % 1013,4 hPa 0,0 l/m 3,6 km/h (1 Bft) S 180 3,3 C 5,6 C
08.10.2012 22:51 5,6 C 85 % 1013,5 hPa 0,0 l/m 4,0 km/h (1 Bft) S 180 3,3 C 5,6 C
08.10.2012 22:56 5,6 C 86 % 1013,5 hPa 0,0 l/m 2,2 km/h (1 Bft) S 180 3,4 C 5,6 C
08.10.2012 23:01 5,5 C 86 % 1013,5 hPa 0,0 l/m 0,0 km/h (0 Bft) S 180 3,3 C 5,5 C
08.10.2012 23:06 5,4 C 86 % 1013,4 hPa 0,0 l/m 1,4 km/h (1 Bft) S 180 3,3 C 5,4 C
08.10.2012 23:11 5,4 C 86 % 1013,2 hPa 0,0 l/m 0,0 km/h (0 Bft) S 180 3,3 C 5,4 C
08.10.2012 23:16 5,3 C 86 % 1013,2 hPa 0,0 l/m 0,0 km/h (0 Bft) S 180 3,2 C 5,3 C
08.10.2012 23:21 5,3 C 86 % 1013,2 hPa 0,0 l/m 0,0 km/h (0 Bft) S 180 3,2 C 5,3 C
08.10.2012 23:26 5,3 C 86 % 1013,2 hPa 0,0 l/m 0,0 km/h (0 Bft) S 180 3,2 C 5,3 C
08.10.2012 23:31 5,2 C 87 % 1013,2 hPa 0,0 l/m 0,0 km/h (0 Bft) S 180 3,2 C 5,2 C
08.10.2012 23:36 5,1 C 87 % 1013,2 hPa 0,0 l/m 0,0 km/h (0 Bft) S 180 3,1 C 5,1 C
08.10.2012 23:41 4,9 C 87 % 1012,8 hPa 0,0 l/m 2,9 km/h (1 Bft) S 180 2,9 C 4,9 C
08.10.2012 23:46 4,8 C 87 % 1012,8 hPa 0,0 l/m 2,2 km/h (1 Bft) S 180 2,8 C 4,8 C
08.10.2012 23:51 4,6 C 87 % 1012,7 hPa 0,0 l/m 2,5 km/h (1 Bft) S 180 2,6 C 4,6 C
08.10.2012 23:56 4,6 C 87 % 1012,7 hPa 0,0 l/m 0,0 km/h (0 Bft) S 180 2,6 C 4,6 C
_ Min-Zeit 23:51 14:41 23:51 - 06:01 - - 23:51 07:51
Minimum _ 4,6 C 68 % 1012,7 hPa - 0,0 km/h (0 Bft) - - 2,6 C 4,2 C
_ Max-Zeit 12:56 07:21 10:11 00:01 01:41 - - 12:31 12:56
Maximum _ 13,6 C 90 % 1020,3 hPa 0,0 l/m 24,5 km/h
W (4 Bft)
- - 8,6 C 13,6 C
Durchschnitt _ 9,5 C 81 % 1018,2 hPa #0,0 l/m 7,1 km/h (2 Bft) W-SW - 6,3 C 8,9 C
(c) by David Heller